createdAt,value
2023-01-30T00:01:15.935Z,20.17
2023-01-30T00:03:44.153Z,19.27
2023-01-30T00:06:14.099Z,18.30
2023-01-30T00:08:42.471Z,19.47
2023-01-30T00:11:12.363Z,20.37
2023-01-30T00:13:41.666Z,18.23
2023-01-30T00:16:11.145Z,19.33
2023-01-30T00:18:40.559Z,19.33
2023-01-30T00:21:10.858Z,18.70
2023-01-30T00:23:41.349Z,18.57
2023-01-30T00:26:09.929Z,18.60
2023-01-30T00:28:40.206Z,18.47
2023-01-30T00:31:09.345Z,19.67
2023-01-30T00:33:39.316Z,18.77
2023-01-30T00:36:08.455Z,19.47
2023-01-30T00:38:36.724Z,17.93
2023-01-30T00:41:10.907Z,19.63
2023-01-30T00:43:57.018Z,20.87
2023-01-30T00:46:46.583Z,17.63
2023-01-30T00:49:14.875Z,18.30
2023-01-30T00:51:43.245Z,17.73
2023-01-30T00:54:11.755Z,18.63
2023-01-30T00:56:41.361Z,17.07
2023-01-30T00:59:09.651Z,18.13
2023-01-30T01:01:38.791Z,16.43
2023-01-30T01:04:08.834Z,17.03
2023-01-30T01:06:37.234Z,16.97
2023-01-30T01:09:06.446Z,16.70
2023-01-30T01:11:34.714Z,15.77
2023-01-30T01:14:06.417Z,16.37
2023-01-30T01:16:36.559Z,16.77
2023-01-30T01:19:05.555Z,16.40
2023-01-30T01:21:33.815Z,16.27
2023-01-30T01:24:02.251Z,16.00
2023-01-30T01:26:30.502Z,15.60
2023-01-30T01:28:59.831Z,15.10
2023-01-30T01:31:29.559Z,14.83
2023-01-30T01:33:58.071Z,16.90
2023-01-30T01:36:53.182Z,14.93
2023-01-30T01:39:17.615Z,14.60
2023-01-30T01:41:44.972Z,14.20
2023-01-30T01:44:15.264Z,14.50
2023-01-30T01:46:48.797Z,13.97
2023-01-30T01:49:20.876Z,14.70
2023-01-30T01:51:56.142Z,14.70
2023-01-30T01:54:30.695Z,14.27
2023-01-30T01:57:02.949Z,14.17
2023-01-30T01:59:36.039Z,14.43
2023-01-30T02:02:10.612Z,14.87
2023-01-30T02:04:59.696Z,13.40
2023-01-30T02:07:30.265Z,13.93
2023-01-30T02:09:59.099Z,12.93
2023-01-30T02:12:27.716Z,13.83
2023-01-30T02:14:58.682Z,13.10
2023-01-30T02:17:28.306Z,13.77
2023-01-30T02:20:06.076Z,13.77
2023-01-30T02:23:20.460Z,13.10
2023-01-30T02:26:37.427Z,11.73
2023-01-30T02:29:29.354Z,12.13
2023-01-30T02:32:07.915Z,12.13
2023-01-30T02:34:51.036Z,12.80
2023-01-30T02:37:32.810Z,11.17
2023-01-30T02:40:12.466Z,11.27
2023-01-30T02:43:00.197Z,11.77
2023-01-30T02:45:35.290Z,10.50
2023-01-30T02:48:07.186Z,11.03
2023-01-30T02:50:39.903Z,10.47
2023-01-30T02:53:08.949Z,10.03
2023-01-30T02:55:37.576Z,9.97
2023-01-30T02:58:06.017Z,9.83
2023-01-30T03:00:49.345Z,9.50
2023-01-30T03:03:36.489Z,8.90
2023-01-30T03:06:22.299Z,9.47
2023-01-30T03:09:03.924Z,8.60
2023-01-30T03:11:40.347Z,7.73
2023-01-30T03:14:19.487Z,7.37
2023-01-30T03:16:48.933Z,6.87
2023-01-30T03:19:21.116Z,6.60
2023-01-30T03:21:49.694Z,6.63
2023-01-30T03:24:19.315Z,6.70
2023-01-30T03:26:52.845Z,6.77
2023-01-30T03:29:21.813Z,7.13
2023-01-30T03:31:50.495Z,6.53
2023-01-30T03:34:20.183Z,6.40
2023-01-30T03:36:49.091Z,6.87
2023-01-30T03:39:17.859Z,7.70
2023-01-30T03:41:46.388Z,6.77
2023-01-30T03:44:17.641Z,7.23
2023-01-30T03:46:45.971Z,7.40
2023-01-30T03:49:14.309Z,7.23
2023-01-30T03:51:43.917Z,6.90
2023-01-30T03:54:12.197Z,8.20
2023-01-30T03:56:40.550Z,7.40
2023-01-30T03:59:09.181Z,7.80
2023-01-30T04:01:43.039Z,7.40
2023-01-30T04:04:11.553Z,7.53
2023-01-30T04:06:39.976Z,7.00
2023-01-30T04:09:09.624Z,7.80
2023-01-30T04:11:43.214Z,8.10
2023-01-30T04:14:11.433Z,7.73
2023-01-30T04:16:51.685Z,7.53
2023-01-30T04:19:38.913Z,8.20
2023-01-30T04:22:07.509Z,7.30
2023-01-30T04:24:37.110Z,7.77
2023-01-30T04:27:05.495Z,7.60
2023-01-30T04:29:38.934Z,6.63
2023-01-30T04:32:11.245Z,7.10
2023-01-30T04:34:40.480Z,8.10
2023-01-30T04:37:08.706Z,8.93
2023-01-30T04:39:40.495Z,6.13
2023-01-30T04:42:09.468Z,7.37
2023-01-30T04:44:46.311Z,6.70
2023-01-30T04:47:19.707Z,6.20
2023-01-30T04:49:47.997Z,7.00
2023-01-30T04:52:18.052Z,6.67
2023-01-30T04:54:47.696Z,6.87
2023-01-30T04:57:16.928Z,6.67
2023-01-30T04:59:45.309Z,7.40
2023-01-30T05:02:16.380Z,5.67
2023-01-30T05:04:44.686Z,5.17
2023-01-30T05:07:12.933Z,6.73
2023-01-30T05:09:41.146Z,5.80
2023-01-30T05:12:10.783Z,5.20
2023-01-30T05:14:41.342Z,5.90
2023-01-30T05:17:09.738Z,6.17
2023-01-30T05:19:39.091Z,5.67
2023-01-30T05:22:07.386Z,6.67
2023-01-30T05:24:36.774Z,6.50
2023-01-30T05:27:05.187Z,6.90
2023-01-30T05:29:34.777Z,6.93
2023-01-30T05:32:03.021Z,7.23
2023-01-30T05:34:31.567Z,7.37
2023-01-30T05:36:59.817Z,7.87
2023-01-30T05:39:28.031Z,7.43
2023-01-30T05:41:56.297Z,7.80
2023-01-30T05:44:24.715Z,6.77
2023-01-30T05:46:54.548Z,7.07
2023-01-30T05:49:22.762Z,6.23
2023-01-30T05:51:51.663Z,4.87
2023-01-30T05:54:19.952Z,5.60
2023-01-30T05:56:50.331Z,4.83
2023-01-30T05:59:19.525Z,5.17
2023-01-30T06:01:48.000Z,4.70
2023-01-30T06:04:17.559Z,4.37
2023-01-30T06:06:45.746Z,4.90
2023-01-30T06:09:13.939Z,4.10
2023-01-30T06:11:42.216Z,4.20
2023-01-30T06:14:10.394Z,4.57
2023-01-30T06:16:39.706Z,4.00
2023-01-30T06:19:08.951Z,3.87
2023-01-30T06:21:38.685Z,4.53
2023-01-30T06:24:07.413Z,5.90
2023-01-30T06:26:35.664Z,3.83
2023-01-30T06:29:03.922Z,4.27
2023-01-30T06:31:32.196Z,4.33
2023-01-30T06:34:00.415Z,4.23
2023-01-30T06:36:28.655Z,4.13
2023-01-30T06:38:58.324Z,3.37
2023-01-30T06:41:26.698Z,3.73
2023-01-30T06:43:55.600Z,3.97
2023-01-30T06:46:23.852Z,4.70
2023-01-30T06:48:52.114Z,3.80
2023-01-30T06:51:20.309Z,3.93
2023-01-30T06:53:48.587Z,3.93
2023-01-30T06:56:18.172Z,3.83
2023-01-30T06:58:46.429Z,3.50
2023-01-30T07:01:14.908Z,3.70
2023-01-30T07:03:43.242Z,3.13
2023-01-30T07:06:11.588Z,3.50
2023-01-30T07:08:40.841Z,3.43
2023-01-30T07:11:09.052Z,3.60
2023-01-30T07:13:38.883Z,2.90
2023-01-30T07:16:07.979Z,2.67
2023-01-30T07:18:36.234Z,3.00
2023-01-30T07:21:04.507Z,2.87
2023-01-30T07:23:32.750Z,3.13
2023-01-30T07:26:03.984Z,2.53
2023-01-30T07:28:32.297Z,2.63
2023-01-30T07:31:02.318Z,2.70
2023-01-30T07:33:30.526Z,2.60
2023-01-30T07:35:58.737Z,2.97
2023-01-30T07:38:27.014Z,2.90
2023-01-30T07:40:55.206Z,2.90
2023-01-30T07:43:23.662Z,3.20
2023-01-30T07:45:51.886Z,2.70
2023-01-30T07:48:21.565Z,2.80
2023-01-30T07:50:49.770Z,2.77
2023-01-30T07:53:18.903Z,2.90
2023-01-30T07:55:47.280Z,3.37
2023-01-30T07:58:17.191Z,3.47
2023-01-30T08:00:45.770Z,3.23
2023-01-30T08:03:14.587Z,4.90
2023-01-30T08:05:44.511Z,3.53
2023-01-30T08:08:12.801Z,3.67
2023-01-30T08:10:41.059Z,3.90
2023-01-30T08:13:09.275Z,3.70
2023-01-30T08:15:38.353Z,3.07
2023-01-30T08:18:07.294Z,3.37
2023-01-30T08:20:35.582Z,3.27
2023-01-30T08:23:05.243Z,3.40
2023-01-30T08:25:35.472Z,4.27
2023-01-30T08:28:04.626Z,3.73
2023-01-30T08:30:33.509Z,3.07
2023-01-30T08:33:01.810Z,2.77
2023-01-30T08:35:30.046Z,2.47
2023-01-30T08:37:58.498Z,2.27
2023-01-30T08:40:28.030Z,2.50
2023-01-30T08:42:56.238Z,2.50
2023-01-30T08:45:24.464Z,2.63
2023-01-30T08:47:52.680Z,2.20
2023-01-30T08:50:21.252Z,2.90
2023-01-30T08:52:49.537Z,3.40
2023-01-30T08:55:18.062Z,2.30
2023-01-30T08:57:47.914Z,2.83
2023-01-30T09:00:17.742Z,2.43
2023-01-30T09:02:46.256Z,3.47
2023-01-30T09:05:14.652Z,2.77
2023-01-30T09:07:42.896Z,2.60
2023-01-30T09:10:12.155Z,2.80
2023-01-30T09:12:40.420Z,2.73
2023-01-30T09:15:11.408Z,2.60
2023-01-30T09:17:39.985Z,2.53
2023-01-30T09:20:09.938Z,2.90
2023-01-30T09:22:39.241Z,2.60
2023-01-30T09:25:09.188Z,2.67
2023-01-30T09:27:38.055Z,2.70
2023-01-30T09:30:07.773Z,3.00
2023-01-30T09:32:37.812Z,3.10
2023-01-30T09:35:06.687Z,3.07
2023-01-30T09:37:34.927Z,3.10
2023-01-30T09:40:03.247Z,3.23
2023-01-30T09:42:52.811Z,2.27
2023-01-30T09:45:45.453Z,3.17
2023-01-30T09:48:21.616Z,2.40
2023-01-30T09:51:26.370Z,2.60
2023-01-30T09:54:06.416Z,2.30
2023-01-30T09:56:34.703Z,2.20
2023-01-30T09:59:05.574Z,2.93
2023-01-30T10:01:40.541Z,2.97
2023-01-30T10:04:16.542Z,2.20
2023-01-30T10:06:53.313Z,2.87
2023-01-30T10:09:32.323Z,3.07
2023-01-30T10:12:13.454Z,3.07
2023-01-30T10:15:03.618Z,2.43
2023-01-30T10:17:41.035Z,3.03
2023-01-30T10:20:31.537Z,2.50
2023-01-30T10:23:20.726Z,2.83
2023-01-30T10:25:53.869Z,3.40
2023-01-30T10:28:26.880Z,2.27
2023-01-30T10:31:01.875Z,2.90
2023-01-30T10:33:34.345Z,2.30
2023-01-30T10:36:08.218Z,3.60
2023-01-30T10:38:41.978Z,2.40
2023-01-30T10:41:18.407Z,2.40
2023-01-30T10:43:50.515Z,2.70
2023-01-30T10:46:34.560Z,2.40
2023-01-30T10:49:06.073Z,3.40
2023-01-30T10:51:47.707Z,3.23
2023-01-30T10:54:23.587Z,3.13
2023-01-30T10:56:58.936Z,3.20
2023-01-30T10:59:40.982Z,3.70
2023-01-30T11:02:21.160Z,2.77
2023-01-30T11:04:56.008Z,2.97
2023-01-30T11:07:25.775Z,2.90
2023-01-30T11:09:53.999Z,2.50
2023-01-30T11:12:22.999Z,2.53
2023-01-30T11:14:53.305Z,2.40
2023-01-30T11:17:23.011Z,3.20
2023-01-30T11:19:56.783Z,2.60
2023-01-30T11:22:28.089Z,2.93
2023-01-30T11:25:06.303Z,3.17
2023-01-30T11:27:36.055Z,2.67
2023-01-30T11:30:07.464Z,2.83
2023-01-30T11:32:35.935Z,2.47
2023-01-30T11:35:18.343Z,2.73
2023-01-30T11:37:47.932Z,3.53
2023-01-30T11:40:25.683Z,2.43
2023-01-30T11:42:59.801Z,2.70
2023-01-30T11:45:30.346Z,2.40
2023-01-30T11:48:04.085Z,2.33
2023-01-30T11:50:41.228Z,2.60
2023-01-30T11:53:23.405Z,2.40
2023-01-30T11:56:03.044Z,2.27
2023-01-30T11:58:37.047Z,3.07
2023-01-30T12:01:06.191Z,3.70
2023-01-30T12:03:34.774Z,2.57
2023-01-30T12:06:03.112Z,3.33
2023-01-30T12:08:42.660Z,2.93
2023-01-30T12:11:30.025Z,2.80
2023-01-30T12:14:14.140Z,3.20
2023-01-30T12:17:01.624Z,2.47
2023-01-30T12:19:40.267Z,3.67
2023-01-30T12:22:24.086Z,2.70
2023-01-30T12:25:00.008Z,3.23
2023-01-30T12:27:45.673Z,3.53
2023-01-30T12:30:22.745Z,2.50
2023-01-30T12:32:51.226Z,2.53
2023-01-30T12:35:25.724Z,2.20
2023-01-30T12:38:03.324Z,3.10
2023-01-30T12:40:43.777Z,2.27
2023-01-30T12:43:30.797Z,2.67
2023-01-30T12:46:09.102Z,3.03
2023-01-30T12:49:07.788Z,2.33
2023-01-30T12:51:50.877Z,2.60
2023-01-30T12:54:33.159Z,2.83
2023-01-30T12:57:16.226Z,2.57
2023-01-30T12:59:56.505Z,2.60
2023-01-30T13:02:42.842Z,2.87
2023-01-30T13:05:26.129Z,2.20
2023-01-30T13:08:10.227Z,3.03
2023-01-30T13:10:45.695Z,4.00
2023-01-30T13:13:24.016Z,2.77
2023-01-30T13:16:03.533Z,3.10
2023-01-30T13:18:43.170Z,3.17
2023-01-30T13:21:18.132Z,3.10
2023-01-30T13:23:55.843Z,2.80
2023-01-30T13:26:28.225Z,2.90
2023-01-30T13:29:03.183Z,3.87
2023-01-30T13:31:34.079Z,3.30
2023-01-30T13:34:06.990Z,3.03
2023-01-30T13:36:43.687Z,2.90
2023-01-30T13:41:55.092Z,2.90
2023-01-30T13:44:29.119Z,3.30
2023-01-30T13:46:59.157Z,2.67
2023-01-30T13:49:39.034Z,2.70
2023-01-30T13:52:15.667Z,3.13
2023-01-30T13:54:54.435Z,3.40
2023-01-30T13:57:31.600Z,3.23
2023-01-30T14:00:26.261Z,3.33
2023-01-30T14:03:26.165Z,2.67
2023-01-30T14:06:41.982Z,3.43
2023-01-30T14:09:22.617Z,3.27
2023-01-30T14:11:59.068Z,3.37
2023-01-30T14:14:33.278Z,2.77
2023-01-30T14:17:16.270Z,2.83
2023-01-30T14:19:58.856Z,3.40
2023-01-30T14:22:32.042Z,2.67
2023-01-30T14:25:46.042Z,2.77
2023-01-30T14:28:50.940Z,2.93
2023-01-30T14:31:52.841Z,3.00
2023-01-30T14:34:50.562Z,3.27
2023-01-30T14:37:46.682Z,2.97
2023-01-30T14:40:35.359Z,3.80
2023-01-30T14:43:48.518Z,2.70
2023-01-30T14:46:54.406Z,3.43
2023-01-30T14:49:32.337Z,2.97
2023-01-30T14:52:03.764Z,3.00
2023-01-30T14:54:42.449Z,3.07
2023-01-30T14:57:20.394Z,4.40
2023-01-30T15:00:12.185Z,2.50
2023-01-30T15:02:44.648Z,2.73
2023-01-30T15:05:16.711Z,3.37
2023-01-30T15:07:50.747Z,2.50
2023-01-30T15:10:34.826Z,3.57
2023-01-30T15:13:29.912Z,3.00
2023-01-30T15:16:09.523Z,3.20
2023-01-30T15:18:51.587Z,3.17
2023-01-30T15:21:37.475Z,3.23
2023-01-30T15:24:23.325Z,3.13
2023-01-30T15:27:00.048Z,2.73
2023-01-30T15:29:46.066Z,3.30
2023-01-30T15:32:19.302Z,2.83
2023-01-30T15:34:53.278Z,3.90
2023-01-30T15:37:36.686Z,2.47
2023-01-30T15:40:24.493Z,2.77
2023-01-30T15:42:58.516Z,2.73
2023-01-30T15:45:35.559Z,2.87
2023-01-30T15:48:38.565Z,3.37
2023-01-30T15:51:07.092Z,3.43
2023-01-30T15:53:38.506Z,3.07
2023-01-30T15:56:12.222Z,3.17
2023-01-30T15:58:43.500Z,3.17
2023-01-30T16:01:15.441Z,2.63
2023-01-30T16:03:44.466Z,2.97
2023-01-30T16:06:23.820Z,2.83
2023-01-30T16:09:00.801Z,2.93
2023-01-30T16:11:40.236Z,3.13
2023-01-30T16:14:13.632Z,3.00
2023-01-30T16:16:44.856Z,3.00
2023-01-30T16:19:22.177Z,2.93
2023-01-30T16:21:50.685Z,3.10
2023-01-30T16:24:24.795Z,3.10
2023-01-30T16:26:59.331Z,3.20
2023-01-30T16:29:32.356Z,3.10
2023-01-30T16:32:01.153Z,2.90
2023-01-30T16:34:32.375Z,3.73
2023-01-30T16:37:05.319Z,2.30
2023-01-30T16:39:35.995Z,2.97
2023-01-30T16:42:28.817Z,3.77
2023-01-30T16:45:11.614Z,3.07
2023-01-30T16:47:41.220Z,2.93
2023-01-30T16:50:20.797Z,3.53
2023-01-30T16:52:53.298Z,3.53
2023-01-30T16:55:24.172Z,3.27
2023-01-30T16:57:56.387Z,3.53
2023-01-30T17:00:27.022Z,3.27
2023-01-30T17:02:57.958Z,3.27
2023-01-30T17:05:30.292Z,3.10
2023-01-30T17:08:00.547Z,5.00
2023-01-30T17:10:55.980Z,3.03
2023-01-30T17:13:36.814Z,2.90
2023-01-30T17:16:32.885Z,3.20
2023-01-30T17:19:01.961Z,3.57
2023-01-30T17:21:32.685Z,3.27
2023-01-30T17:24:03.215Z,2.80
2023-01-30T17:26:32.567Z,3.30
2023-01-30T17:29:02.214Z,3.13
2023-01-30T17:31:30.604Z,4.03
2023-01-30T17:33:58.926Z,3.57
2023-01-30T17:36:29.485Z,3.93
2023-01-30T17:38:59.394Z,3.40
2023-01-30T17:41:30.197Z,3.67
2023-01-30T17:43:58.807Z,3.23
2023-01-30T17:46:34.704Z,3.40
2023-01-30T17:49:03.135Z,3.60
2023-01-30T17:51:31.403Z,4.57
2023-01-30T17:53:59.705Z,3.37
2023-01-30T17:56:32.110Z,3.40
2023-01-30T17:59:00.347Z,3.47
2023-01-30T18:01:30.008Z,3.70
2023-01-30T18:03:58.355Z,3.83
2023-01-30T18:06:27.200Z,4.00
2023-01-30T18:08:55.438Z,4.23
2023-01-30T18:11:23.988Z,3.67
2023-01-30T18:13:52.208Z,4.27
2023-01-30T18:16:24.061Z,4.20
2023-01-30T18:18:53.748Z,3.43
2023-01-30T18:21:22.555Z,3.60
2023-01-30T18:23:50.911Z,3.87
2023-01-30T18:26:20.194Z,4.20
2023-01-30T18:28:49.056Z,3.80
2023-01-30T18:31:17.809Z,4.70
2023-01-30T18:33:46.211Z,4.23
2023-01-30T18:36:17.855Z,3.60
2023-01-30T18:38:46.341Z,3.77
2023-01-30T18:41:16.362Z,4.43
2023-01-30T18:43:45.020Z,3.47
2023-01-30T18:46:15.320Z,3.17
2023-01-30T18:48:44.386Z,3.97
2023-01-30T18:51:15.942Z,4.60
2023-01-30T18:53:44.938Z,4.10
2023-01-30T18:56:14.870Z,4.60
2023-01-30T18:58:45.104Z,3.70
2023-01-30T19:01:16.487Z,4.90
2023-01-30T19:03:45.456Z,4.67
2023-01-30T19:06:18.275Z,6.30
2023-01-30T19:08:46.856Z,6.23
2023-01-30T19:11:34.532Z,5.70
2023-01-30T19:14:03.436Z,7.23
2023-01-30T19:16:33.769Z,5.47
2023-01-30T19:19:02.796Z,6.33
2023-01-30T19:21:32.535Z,7.80
2023-01-30T19:24:03.333Z,7.87
2023-01-30T19:26:31.633Z,6.37
2023-01-30T19:29:00.507Z,6.60
2023-01-30T19:31:28.911Z,5.07
2023-01-30T19:34:00.638Z,5.83
2023-01-30T19:36:32.821Z,6.57
2023-01-30T19:39:03.771Z,7.43
2023-01-30T19:41:34.426Z,7.83
2023-01-30T19:44:03.969Z,7.37
2023-01-30T19:46:33.123Z,6.27
2023-01-30T19:49:03.339Z,6.67
2023-01-30T19:51:33.319Z,5.97
2023-01-30T19:54:05.617Z,5.43
2023-01-30T19:56:36.617Z,5.40
2023-01-30T19:59:05.424Z,6.20
2023-01-30T20:01:37.605Z,5.23
2023-01-30T20:04:06.412Z,4.90
2023-01-30T20:06:37.349Z,5.07
2023-01-30T20:09:08.375Z,5.33
2023-01-30T20:11:38.552Z,5.73
2023-01-30T20:14:07.335Z,7.50
2023-01-30T20:16:36.677Z,8.10
2023-01-30T20:19:06.780Z,8.83
2023-01-30T20:21:36.336Z,8.63
2023-01-30T20:24:06.851Z,8.90
2023-01-30T20:26:39.443Z,10.10
2023-01-30T20:29:09.238Z,9.77
2023-01-30T20:31:39.554Z,8.40
2023-01-30T20:34:09.424Z,9.27
2023-01-30T20:36:37.913Z,9.77
2023-01-30T20:39:07.994Z,9.17
2023-01-30T20:41:37.670Z,9.20
2023-01-30T20:44:07.903Z,8.90
2023-01-30T20:46:40.925Z,9.03
2023-01-30T20:49:13.460Z,10.77
2023-01-30T20:51:42.400Z,7.97
2023-01-30T20:54:14.051Z,7.87
2023-01-30T20:56:44.618Z,8.20
2023-01-30T20:59:15.279Z,7.10
2023-01-30T21:01:44.445Z,7.67
2023-01-30T21:04:15.793Z,8.40
2023-01-30T21:06:46.169Z,7.87
2023-01-30T21:09:18.850Z,7.27
2023-01-30T21:11:47.658Z,6.67
2023-01-30T21:14:16.684Z,8.30
2023-01-30T21:16:45.677Z,8.40
2023-01-30T21:19:16.542Z,8.57
2023-01-30T21:21:50.840Z,7.53
2023-01-30T21:24:23.838Z,7.83
2023-01-30T21:26:52.901Z,8.73
2023-01-30T21:29:23.665Z,8.33
2023-01-30T21:31:52.252Z,8.37
2023-01-30T21:34:20.580Z,8.00
2023-01-30T21:37:08.882Z,7.97
2023-01-30T21:39:56.111Z,8.13
2023-01-30T21:42:41.936Z,8.33
2023-01-30T21:45:10.349Z,8.17
2023-01-30T21:47:39.907Z,8.33
2023-01-30T21:50:09.217Z,8.83
2023-01-30T21:52:38.055Z,8.33
2023-01-30T21:55:08.588Z,8.63
2023-01-30T21:57:36.814Z,8.93
2023-01-30T22:00:05.672Z,8.17
2023-01-30T22:02:33.856Z,8.63
2023-01-30T22:05:02.151Z,8.27
2023-01-30T22:07:30.367Z,10.37
2023-01-30T22:09:58.718Z,8.97
2023-01-30T22:12:28.304Z,10.33
2023-01-30T22:14:56.558Z,10.30
2023-01-30T22:17:24.915Z,9.97
2023-01-30T22:19:53.248Z,8.83
2023-01-30T22:22:24.857Z,8.73
2023-01-30T22:24:53.066Z,9.37
2023-01-30T22:27:21.280Z,10.20
2023-01-30T22:29:50.927Z,9.83
2023-01-30T22:32:19.188Z,9.47
2023-01-30T22:34:47.503Z,9.87
2023-01-30T22:37:16.864Z,10.20
2023-01-30T22:39:45.106Z,9.80
2023-01-30T22:42:13.405Z,9.73
2023-01-30T22:44:41.896Z,10.43
2023-01-30T22:47:11.558Z,9.70
2023-01-30T22:49:40.145Z,8.23
2023-01-30T22:52:08.367Z,9.73
2023-01-30T22:54:37.157Z,9.43
2023-01-30T22:57:05.481Z,9.87
2023-01-30T22:59:33.684Z,9.10
2023-01-30T23:02:02.095Z,10.23
2023-01-30T23:04:31.752Z,9.13
2023-01-30T23:06:59.981Z,10.27
2023-01-30T23:09:28.182Z,9.00
2023-01-30T23:12:15.993Z,9.60
2023-01-30T23:14:45.038Z,9.27
2023-01-30T23:17:30.834Z,9.13
2023-01-30T23:20:00.539Z,9.17
2023-01-30T23:22:29.283Z,9.60
2023-01-30T23:24:57.521Z,9.43
2023-01-30T23:27:25.810Z,10.83
2023-01-30T23:29:54.105Z,9.33
2023-01-30T23:32:23.657Z,8.90
2023-01-30T23:34:52.049Z,9.07
2023-01-30T23:37:42.831Z,10.23
2023-01-30T23:40:12.494Z,8.60
2023-01-30T23:42:43.174Z,8.57
2023-01-30T23:45:12.191Z,10.10
2023-01-30T23:47:40.387Z,10.40
2023-01-30T23:50:09.115Z,10.03
2023-01-30T23:52:39.057Z,9.50
2023-01-30T23:55:08.200Z,10.70
2023-01-30T23:57:36.386Z,11.07
